createdAt,value
2023-11-28T00:00:05.886Z,41.77
2023-11-28T00:02:40.340Z,43.40
2023-11-28T00:05:08.202Z,44.60
2023-11-28T00:07:35.750Z,43.23
2023-11-28T00:10:03.273Z,37.47
2023-11-28T00:12:30.729Z,40.07
2023-11-28T00:14:58.263Z,43.63
2023-11-28T00:17:25.731Z,43.13
2023-11-28T00:19:53.231Z,43.77
2023-11-28T00:22:20.729Z,43.37
2023-11-28T00:24:48.159Z,40.63
2023-11-28T00:27:16.374Z,42.87
2023-11-28T00:29:43.848Z,42.77
2023-11-28T00:32:14.123Z,41.27
2023-11-28T00:34:42.600Z,44.03
2023-11-28T00:37:10.357Z,42.60
2023-11-28T00:39:38.073Z,44.87
2023-11-28T00:42:06.937Z,43.47
2023-11-28T00:44:34.636Z,46.53
2023-11-28T00:47:03.322Z,45.80
2023-11-28T00:49:33.332Z,48.60
2023-11-28T00:52:02.466Z,50.03
2023-11-28T00:54:30.613Z,50.77
2023-11-28T00:56:59.068Z,48.83
2023-11-28T00:59:27.002Z,49.97
2023-11-28T01:01:55.449Z,47.57
2023-11-28T01:04:23.434Z,46.90
2023-11-28T01:06:50.846Z,46.53
2023-11-28T01:09:18.284Z,41.90
2023-11-28T01:11:45.692Z,41.53
2023-11-28T01:14:13.186Z,44.03
2023-11-28T01:16:40.639Z,41.10
2023-11-28T01:19:08.181Z,36.90
2023-11-28T01:21:35.564Z,39.90
2023-11-28T01:24:03.004Z,37.50
2023-11-28T01:26:30.417Z,39.83
2023-11-28T01:28:57.924Z,39.90
2023-11-28T01:31:26.181Z,39.80
2023-11-28T01:33:53.742Z,37.93
2023-11-28T01:36:21.938Z,39.10
2023-11-28T01:38:50.214Z,37.10
2023-11-28T01:41:17.642Z,39.37
2023-11-28T01:43:45.122Z,37.50
2023-11-28T01:46:13.306Z,32.67
2023-11-28T01:48:41.195Z,39.33
2023-11-28T01:51:09.514Z,39.13
2023-11-28T01:53:37.997Z,39.07
2023-11-28T01:56:05.760Z,32.60
2023-11-28T01:58:33.341Z,39.17
2023-11-28T02:01:01.948Z,39.70
2023-11-28T02:03:29.631Z,40.00
2023-11-28T02:05:57.680Z,39.30
2023-11-28T02:08:25.036Z,39.47
2023-11-28T02:10:52.470Z,38.27
2023-11-28T02:13:20.510Z,39.30
2023-11-28T02:15:48.315Z,37.77
2023-11-28T02:18:16.015Z,38.30
2023-11-28T02:20:44.012Z,39.27
2023-11-28T02:23:11.527Z,39.93
2023-11-28T02:25:45.381Z,38.90
2023-11-28T02:28:17.441Z,39.60
2023-11-28T02:30:47.790Z,40.90
2023-11-28T02:33:15.453Z,40.67
2023-11-28T02:35:43.521Z,40.90
2023-11-28T02:38:11.256Z,39.47
2023-11-28T02:40:38.667Z,39.60
2023-11-28T02:43:06.166Z,39.93
2023-11-28T02:45:33.863Z,39.13
2023-11-28T02:48:01.301Z,39.87
2023-11-28T02:50:28.813Z,39.63
2023-11-28T02:52:56.533Z,36.83
2023-11-28T02:55:23.980Z,39.37
2023-11-28T02:57:52.707Z,38.83
2023-11-28T03:00:20.175Z,38.77
2023-11-28T03:02:47.765Z,37.93
2023-11-28T03:05:15.455Z,39.53
2023-11-28T03:07:42.967Z,39.33
2023-11-28T03:10:10.403Z,37.77
2023-11-28T03:12:37.950Z,33.00
2023-11-28T03:15:05.622Z,37.33
2023-11-28T03:17:33.322Z,40.77
2023-11-28T03:20:00.861Z,36.87
2023-11-28T03:22:28.518Z,36.03
2023-11-28T03:24:56.072Z,37.33
2023-11-28T03:27:23.433Z,37.57
2023-11-28T03:29:50.782Z,37.10
2023-11-28T03:32:18.299Z,37.20
2023-11-28T03:34:45.943Z,37.13
2023-11-28T03:37:13.311Z,38.13
2023-11-28T03:39:43.857Z,34.50
2023-11-28T03:42:11.411Z,37.73
2023-11-28T03:44:39.278Z,38.27
2023-11-28T03:47:07.297Z,37.13
2023-11-28T03:49:34.851Z,36.67
2023-11-28T03:52:02.460Z,33.63
2023-11-28T03:54:30.126Z,37.40
2023-11-28T03:56:57.516Z,32.37
2023-11-28T03:59:24.880Z,35.30
2023-11-28T04:01:53.524Z,34.70
2023-11-28T04:04:21.349Z,32.93
2023-11-28T04:06:49.101Z,32.17
2023-11-28T04:09:16.501Z,35.33
2023-11-28T04:11:43.941Z,36.27
2023-11-28T04:14:11.487Z,34.80
2023-11-28T04:16:39.220Z,34.77
2023-11-28T04:19:08.391Z,33.47
2023-11-28T04:21:35.982Z,33.97
2023-11-28T04:24:04.190Z,31.63
2023-11-28T04:26:31.756Z,33.67
2023-11-28T04:28:59.238Z,31.83
2023-11-28T04:31:28.979Z,31.83
2023-11-28T04:34:00.695Z,29.50
2023-11-28T04:36:28.414Z,32.20
2023-11-28T04:38:56.516Z,33.27
2023-11-28T04:41:23.897Z,33.00
2023-11-28T04:43:51.932Z,30.83
2023-11-28T04:46:19.379Z,31.50
2023-11-28T04:48:46.904Z,29.30
2023-11-28T04:51:14.317Z,32.20
2023-11-28T04:53:41.868Z,27.80
2023-11-28T04:56:09.724Z,30.97
2023-11-28T04:58:37.366Z,28.93
2023-11-28T05:01:05.498Z,30.17
2023-11-28T05:03:33.152Z,29.33
2023-11-28T05:06:00.756Z,29.93
2023-11-28T05:08:28.271Z,29.90
2023-11-28T05:10:55.740Z,30.20
2023-11-28T05:13:23.234Z,27.97
2023-11-28T05:15:51.141Z,27.93
2023-11-28T05:18:19.450Z,27.37
2023-11-28T05:20:47.124Z,27.43
2023-11-28T05:23:14.516Z,26.33
2023-11-28T05:25:43.970Z,26.17
2023-11-28T05:28:11.342Z,26.53
2023-11-28T05:30:39.695Z,26.03
2023-11-28T05:33:07.257Z,24.37
2023-11-28T05:35:35.231Z,25.77
2023-11-28T05:38:02.753Z,25.70
2023-11-28T05:40:30.420Z,26.33
2023-11-28T05:43:00.416Z,25.77
2023-11-28T05:45:28.964Z,26.97
2023-11-28T05:47:56.714Z,25.80
2023-11-28T05:50:24.464Z,25.30
2023-11-28T05:52:52.842Z,26.40
2023-11-28T05:55:22.161Z,24.63
2023-11-28T05:57:50.558Z,25.10
2023-11-28T06:00:19.403Z,24.57
2023-11-28T06:02:48.398Z,27.30
2023-11-28T06:05:15.976Z,25.10
2023-11-28T06:07:44.790Z,27.10
2023-11-28T06:10:14.570Z,24.73
2023-11-28T06:12:42.120Z,27.70
2023-11-28T06:15:09.999Z,28.23
2023-11-28T06:17:37.746Z,26.43
2023-11-28T06:20:06.178Z,25.80
2023-11-28T06:22:34.336Z,27.40
2023-11-28T06:25:01.826Z,25.00
2023-11-28T06:27:29.451Z,26.23
2023-11-28T06:29:56.925Z,24.40
2023-11-28T06:32:24.384Z,27.63
2023-11-28T06:34:51.999Z,25.27
2023-11-28T06:37:19.635Z,25.40
2023-11-28T06:39:48.599Z,27.00
2023-11-28T06:42:17.051Z,25.13
2023-11-28T06:44:44.857Z,27.50
2023-11-28T06:47:12.256Z,26.43
2023-11-28T06:49:40.067Z,26.93
2023-11-28T06:52:07.630Z,27.10
2023-11-28T06:54:35.158Z,26.80
2023-11-28T06:57:02.577Z,25.83
2023-11-28T06:59:29.999Z,26.83
2023-11-28T07:01:57.574Z,25.60
2023-11-28T07:04:25.124Z,25.07
2023-11-28T07:06:52.578Z,26.03
2023-11-28T07:09:20.563Z,26.40
2023-11-28T07:11:47.986Z,24.50
2023-11-28T07:14:15.532Z,24.40
2023-11-28T07:16:43.021Z,24.97
2023-11-28T07:19:11.177Z,25.23
2023-11-28T07:21:38.758Z,22.83
2023-11-28T07:24:06.193Z,25.27
2023-11-28T07:26:33.841Z,25.80
2023-11-28T07:29:01.590Z,24.23
2023-11-28T07:31:30.909Z,25.53
2023-11-28T07:33:58.516Z,24.30
2023-11-28T07:36:25.930Z,24.23
2023-11-28T07:38:53.380Z,21.57
2023-11-28T07:41:20.811Z,23.90
2023-11-28T07:43:48.782Z,23.93
2023-11-28T07:46:17.310Z,23.07
2023-11-28T07:48:44.800Z,24.17
2023-11-28T07:51:12.197Z,23.23
2023-11-28T07:53:39.673Z,23.70
2023-11-28T07:56:07.683Z,22.93
2023-11-28T07:58:35.608Z,22.63
2023-11-28T08:01:03.233Z,21.47
2023-11-28T08:03:30.749Z,23.30
2023-11-28T08:05:58.396Z,22.20
2023-11-28T08:08:25.823Z,22.97
2023-11-28T08:10:53.444Z,21.70
2023-11-28T08:13:22.968Z,23.30
2023-11-28T08:15:53.899Z,22.07
2023-11-28T08:18:21.425Z,22.57
2023-11-28T08:20:48.970Z,23.30
2023-11-28T08:23:16.518Z,24.23
2023-11-28T08:25:44.045Z,23.03
2023-11-28T08:28:11.452Z,22.27
2023-11-28T08:30:38.902Z,22.03
2023-11-28T08:33:06.591Z,21.67
2023-11-28T08:35:34.124Z,21.93
2023-11-28T08:38:01.484Z,23.47
2023-11-28T08:40:28.978Z,20.37
2023-11-28T08:42:56.390Z,24.33
2023-11-28T08:45:23.860Z,23.07
2023-11-28T08:47:51.382Z,24.20
2023-11-28T08:50:18.922Z,22.57
2023-11-28T08:52:46.478Z,23.90
2023-11-28T08:55:14.020Z,25.50
2023-11-28T08:57:41.857Z,23.50
2023-11-28T09:00:09.909Z,22.27
2023-11-28T09:02:39.629Z,23.93
2023-11-28T09:05:07.648Z,23.13
2023-11-28T09:07:35.163Z,21.87
2023-11-28T09:10:02.679Z,24.27
2023-11-28T09:12:30.310Z,22.20
2023-11-28T09:14:58.049Z,25.47
2023-11-28T09:17:25.746Z,24.33
2023-11-28T09:19:53.266Z,25.33
2023-11-28T09:22:21.115Z,24.63
2023-11-28T09:24:48.626Z,25.20
2023-11-28T09:27:16.039Z,21.27
2023-11-28T09:29:43.494Z,25.83
2023-11-28T09:32:11.553Z,24.13
2023-11-28T09:34:41.200Z,25.17
2023-11-28T09:37:10.891Z,23.97
2023-11-28T09:39:39.803Z,24.47
2023-11-28T09:42:13.541Z,24.30
2023-11-28T09:44:43.660Z,23.93
2023-11-28T09:47:13.171Z,23.43
2023-11-28T09:49:42.576Z,22.70
2023-11-28T09:52:15.147Z,24.37
2023-11-28T09:54:42.929Z,26.17
2023-11-28T09:57:11.419Z,26.50
2023-11-28T09:59:45.022Z,26.67
2023-11-28T10:02:17.186Z,26.37
2023-11-28T10:04:45.399Z,29.77
2023-11-28T10:07:13.856Z,30.97
2023-11-28T10:09:43.025Z,33.10
2023-11-28T10:12:11.500Z,31.13
2023-11-28T10:14:41.750Z,33.83
2023-11-28T10:17:11.374Z,33.53
2023-11-28T10:19:39.085Z,32.77
2023-11-28T10:22:07.530Z,33.53
2023-11-28T10:24:35.392Z,30.97
2023-11-28T10:27:03.415Z,33.80
2023-11-28T10:29:31.004Z,31.73
2023-11-28T10:31:58.493Z,30.80
2023-11-28T10:34:25.881Z,30.43
2023-11-28T10:36:53.807Z,26.73
2023-11-28T10:39:22.548Z,26.30
2023-11-28T10:41:50.399Z,27.73
2023-11-28T10:44:19.629Z,27.17
2023-11-28T10:46:50.014Z,26.90
2023-11-28T10:49:17.602Z,26.43
2023-11-28T10:51:45.664Z,27.47
2023-11-28T10:54:14.929Z,27.33
2023-11-28T10:56:49.640Z,25.43
2023-11-28T10:59:23.594Z,25.97
2023-11-28T11:01:52.357Z,26.47
2023-11-28T11:04:20.714Z,29.77
2023-11-28T11:06:51.481Z,27.37
2023-11-28T11:09:21.086Z,25.83
2023-11-28T11:11:49.946Z,25.90
2023-11-28T11:14:24.643Z,27.57
2023-11-28T11:16:57.033Z,28.17
2023-11-28T11:19:27.191Z,27.03
2023-11-28T11:22:06.286Z,26.87
2023-11-28T11:24:39.491Z,28.63
2023-11-28T11:27:09.565Z,27.97
2023-11-28T11:29:42.771Z,27.13
2023-11-28T11:32:17.252Z,28.17
2023-11-28T11:34:53.143Z,25.13
2023-11-28T11:37:32.158Z,23.80
2023-11-28T11:40:03.875Z,24.87
2023-11-28T11:42:40.217Z,23.73
2023-11-28T11:45:10.452Z,23.83
2023-11-28T11:47:38.637Z,24.00
2023-11-28T11:50:08.410Z,24.20
2023-11-28T11:52:41.772Z,22.87
2023-11-28T11:55:15.777Z,23.97
2023-11-28T11:57:48.402Z,21.77
2023-11-28T12:00:17.728Z,22.17
2023-11-28T12:02:50.306Z,21.37
2023-11-28T12:05:21.871Z,21.50
2023-11-28T12:07:50.222Z,21.77
2023-11-28T12:10:18.984Z,23.10
2023-11-28T12:12:47.919Z,21.83
2023-11-28T12:15:19.160Z,21.80
2023-11-28T12:17:48.156Z,21.93
2023-11-28T12:20:29.973Z,22.60
2023-11-28T12:23:04.218Z,20.50
2023-11-28T12:25:39.899Z,20.57
2023-11-28T12:28:08.749Z,21.03
2023-11-28T12:30:37.045Z,20.50
2023-11-28T12:33:05.058Z,21.20
2023-11-28T12:35:32.812Z,19.57
2023-11-28T12:38:01.505Z,19.30
2023-11-28T12:40:29.233Z,20.30
2023-11-28T12:43:00.576Z,19.83
2023-11-28T12:45:28.375Z,20.13
2023-11-28T12:48:01.112Z,20.00
2023-11-28T12:50:31.111Z,19.43
2023-11-28T12:52:59.203Z,19.47
2023-11-28T12:55:31.827Z,19.53
2023-11-28T12:57:59.369Z,20.60
2023-11-28T13:00:26.703Z,19.70
2023-11-28T13:02:54.310Z,20.53
2023-11-28T13:05:21.792Z,20.47
2023-11-28T13:07:53.699Z,19.90
2023-11-28T13:10:21.733Z,19.87
2023-11-28T13:12:49.106Z,20.63
2023-11-28T13:15:17.752Z,20.80
2023-11-28T13:17:45.649Z,19.23
2023-11-28T13:20:14.883Z,19.37
2023-11-28T13:22:42.528Z,19.93
2023-11-28T13:25:09.992Z,18.80
2023-11-28T13:27:37.435Z,19.20
2023-11-28T13:30:06.590Z,19.57
2023-11-28T13:32:34.656Z,19.57
2023-11-28T13:35:02.304Z,20.03
2023-11-28T13:37:29.730Z,20.00
2023-11-28T13:39:57.171Z,19.17
2023-11-28T13:42:24.806Z,19.83
2023-11-28T13:44:52.910Z,19.23
2023-11-28T13:47:20.752Z,19.03
2023-11-28T13:49:48.489Z,19.93
2023-11-28T13:52:16.012Z,18.77
2023-11-28T13:54:43.545Z,19.47
2023-11-28T13:57:13.087Z,19.93
2023-11-28T13:59:45.877Z,19.63
2023-11-28T14:02:13.554Z,19.77
2023-11-28T14:04:41.120Z,19.70
2023-11-28T14:07:08.880Z,19.80
2023-11-28T14:09:36.448Z,17.80
2023-11-28T14:12:03.978Z,18.23
2023-11-28T14:14:42.992Z,18.17
2023-11-28T14:17:18.252Z,18.57
2023-11-28T14:19:46.010Z,19.93
2023-11-28T14:22:13.940Z,19.20
2023-11-28T14:24:41.468Z,17.37
2023-11-28T14:27:08.993Z,19.50
2023-11-28T14:29:37.138Z,18.20
2023-11-28T14:32:05.557Z,17.47
2023-11-28T14:34:33.096Z,17.40
2023-11-28T14:37:00.620Z,16.77
2023-11-28T14:39:28.160Z,17.70
2023-11-28T14:41:55.601Z,18.07
2023-11-28T14:44:23.666Z,17.87
2023-11-28T14:46:54.589Z,17.63
2023-11-28T14:49:23.885Z,18.63
2023-11-28T14:51:52.318Z,18.33
2023-11-28T14:54:20.814Z,18.93
2023-11-28T14:56:48.516Z,18.60
2023-11-28T14:59:16.135Z,18.23
2023-11-28T15:01:43.656Z,19.33
2023-11-28T15:04:11.222Z,17.97
2023-11-28T15:06:38.822Z,18.57
2023-11-28T15:09:07.594Z,18.83
2023-11-28T15:11:35.043Z,18.30
2023-11-28T15:14:02.759Z,17.50
2023-11-28T15:16:30.407Z,18.80
2023-11-28T15:18:57.953Z,19.33
2023-11-28T15:21:25.661Z,18.60
2023-11-28T15:23:53.559Z,18.13
2023-11-28T15:26:22.408Z,18.23
2023-11-28T15:28:51.643Z,18.90
2023-11-28T15:31:19.171Z,18.67
2023-11-28T15:33:46.738Z,18.23
2023-11-28T15:36:14.565Z,18.93
2023-11-28T15:38:42.482Z,19.40
2023-11-28T15:41:10.206Z,17.77
2023-11-28T15:43:37.581Z,17.53
2023-11-28T15:46:05.022Z,17.20
2023-11-28T15:48:32.778Z,17.43
2023-11-28T15:51:00.308Z,16.97
2023-11-28T15:53:28.585Z,16.97
2023-11-28T15:55:56.110Z,17.37
2023-11-28T15:58:23.616Z,18.17
2023-11-28T16:00:50.953Z,17.00
2023-11-28T16:03:18.549Z,17.73
2023-11-28T16:05:47.553Z,17.93
2023-11-28T16:08:15.105Z,17.93
2023-11-28T16:10:42.549Z,17.90
2023-11-28T16:13:09.934Z,18.37
2023-11-28T16:15:37.516Z,19.33
2023-11-28T16:18:05.023Z,19.17
2023-11-28T16:20:34.340Z,19.83
2023-11-28T17:16:02.680Z,31.10
2023-11-28T17:18:30.182Z,27.07
2023-11-28T17:20:57.579Z,26.57
2023-11-28T17:23:25.030Z,25.97
2023-11-28T17:25:52.935Z,24.77
2023-11-28T17:28:20.535Z,24.20
2023-11-28T17:30:48.061Z,24.57
2023-11-28T17:33:15.611Z,24.80
2023-11-28T17:35:43.232Z,24.30
2023-11-28T17:38:10.779Z,23.57
2023-11-28T17:40:38.216Z,24.73
2023-11-28T17:43:05.734Z,24.53
2023-11-28T17:45:35.427Z,24.87
2023-11-28T17:48:03.868Z,24.73
2023-11-28T17:50:31.313Z,25.47
2023-11-28T17:52:58.887Z,24.53
2023-11-28T17:55:26.283Z,25.33
2023-11-28T17:57:54.747Z,24.53
2023-11-28T18:00:23.139Z,25.33
2023-11-28T18:02:51.122Z,27.03
2023-11-28T18:05:19.303Z,26.23
2023-11-28T18:07:47.817Z,25.67
2023-11-28T18:10:15.408Z,24.47
2023-11-28T18:12:43.013Z,25.40
2023-11-28T18:15:18.940Z,26.00
2023-11-28T18:17:53.913Z,24.77
2023-11-28T18:20:22.261Z,24.80
2023-11-28T18:22:50.132Z,25.63
2023-11-28T18:25:17.739Z,24.30
2023-11-28T18:27:45.146Z,25.30
2023-11-28T18:30:12.760Z,25.10
2023-11-28T18:32:40.535Z,26.43
2023-11-28T18:35:08.324Z,25.73
2023-11-28T18:37:37.398Z,25.90
2023-11-28T18:40:06.288Z,27.33
2023-11-28T18:42:33.660Z,26.67
2023-11-28T18:45:01.227Z,26.23
2023-11-28T18:47:29.130Z,27.13
2023-11-28T18:49:56.873Z,26.53
2023-11-28T18:52:26.148Z,26.97
2023-11-28T18:54:54.523Z,28.03
2023-11-28T18:57:22.731Z,28.87
2023-11-28T18:59:50.185Z,27.80
2023-11-28T19:02:18.382Z,29.00
2023-11-28T19:04:46.115Z,28.13
2023-11-28T19:07:13.679Z,27.70
2023-11-28T19:09:42.866Z,28.57
2023-11-28T19:12:12.805Z,28.53
2023-11-28T19:14:40.477Z,28.43
2023-11-28T19:17:08.025Z,28.43
2023-11-28T19:19:39.419Z,28.50
2023-11-28T19:22:07.853Z,27.10
2023-11-28T19:24:35.382Z,28.23
2023-11-28T19:27:07.462Z,28.13
2023-11-28T19:29:35.306Z,27.77
2023-11-28T19:32:02.984Z,28.40
2023-11-28T19:34:31.178Z,28.00
2023-11-28T19:36:59.915Z,26.30
2023-11-28T19:39:27.551Z,24.93
2023-11-28T19:41:55.813Z,25.73
2023-11-28T19:44:24.503Z,26.17
2023-11-28T19:46:52.238Z,25.17
2023-11-28T19:49:19.900Z,22.30
2023-11-28T19:51:47.777Z,23.93
2023-11-28T19:54:16.527Z,23.93
2023-11-28T19:56:45.697Z,23.97
2023-11-28T19:59:13.210Z,22.43
2023-11-28T20:01:40.930Z,22.13
2023-11-28T20:04:12.039Z,22.30
2023-11-28T20:06:43.014Z,22.87
2023-11-28T20:09:10.589Z,21.70
2023-11-28T20:11:38.582Z,21.43
2023-11-28T20:14:06.447Z,21.97
2023-11-28T20:16:34.102Z,21.30
2023-11-28T20:19:01.738Z,22.73
2023-11-28T20:21:30.034Z,21.07
2023-11-28T20:23:57.636Z,20.87
2023-11-28T20:26:25.240Z,21.77
2023-11-28T20:28:52.870Z,21.43
2023-11-28T20:31:20.394Z,20.27
2023-11-28T20:33:47.872Z,21.87
2023-11-28T20:36:15.881Z,21.83
2023-11-28T20:38:43.685Z,20.43
2023-11-28T20:41:11.118Z,21.13
2023-11-28T20:43:38.598Z,21.40
2023-11-28T20:46:07.377Z,20.30
2023-11-28T20:48:35.627Z,20.33
2023-11-28T20:51:03.136Z,20.10
2023-11-28T20:53:30.781Z,21.03
2023-11-28T20:55:58.519Z,20.10
2023-11-28T20:58:25.992Z,21.30
2023-11-28T21:00:53.486Z,21.33
2023-11-28T21:03:21.049Z,20.70
2023-11-28T21:05:50.469Z,20.53
2023-11-28T21:08:21.135Z,20.83
2023-11-28T21:10:50.261Z,20.63
2023-11-28T21:13:17.967Z,21.87
2023-11-28T21:15:45.587Z,21.47
2023-11-28T21:18:13.270Z,21.67
2023-11-28T21:20:40.903Z,20.63
2023-11-28T21:23:08.522Z,20.97
2023-11-28T21:25:37.980Z,20.37
2023-11-28T21:28:06.519Z,20.63
2023-11-28T21:30:34.337Z,22.00
2023-11-28T21:33:01.870Z,21.60
2023-11-28T21:35:29.723Z,21.53
2023-11-28T21:37:57.222Z,22.63
2023-11-28T21:40:24.870Z,21.93
2023-11-28T21:42:53.886Z,22.23
2023-11-28T21:45:21.467Z,21.83
2023-11-28T21:47:48.988Z,22.10
2023-11-28T21:50:20.905Z,23.00
2023-11-28T21:52:48.499Z,23.40
2023-11-28T21:55:15.867Z,23.70
2023-11-28T21:57:43.371Z,24.53
2023-11-28T22:00:11.562Z,25.43
2023-11-28T22:02:42.222Z,23.67
2023-11-28T22:05:09.904Z,23.67
2023-11-28T22:07:37.465Z,22.90
2023-11-28T22:10:05.304Z,23.33
2023-11-28T22:12:32.806Z,22.80
2023-11-28T22:15:00.356Z,24.80
2023-11-28T22:17:27.750Z,24.07
2023-11-28T22:19:55.280Z,24.17
2023-11-28T22:22:22.669Z,24.80
2023-11-28T22:24:50.906Z,25.80
2023-11-28T22:27:18.364Z,24.73
2023-11-28T22:29:46.099Z,25.87
2023-11-28T22:32:13.977Z,25.57
2023-11-28T22:34:41.444Z,25.83
2023-11-28T22:37:08.908Z,24.50
2023-11-28T22:39:37.557Z,24.70
2023-11-28T22:42:06.443Z,25.43
2023-11-28T22:44:33.960Z,25.33
2023-11-28T22:47:01.399Z,25.37
2023-11-28T22:49:30.384Z,25.13
2023-11-28T22:51:58.403Z,25.50
2023-11-28T22:54:25.840Z,25.67
2023-11-28T22:56:53.333Z,25.63
2023-11-28T22:59:20.943Z,25.07
2023-11-28T23:01:48.548Z,23.90
2023-11-28T23:04:16.142Z,23.80
2023-11-28T23:06:43.502Z,22.53
2023-11-28T23:09:11.521Z,22.57
2023-11-28T23:11:38.879Z,20.53
2023-11-28T23:14:06.332Z,17.60
2023-11-28T23:16:33.826Z,15.93
2023-11-28T23:19:01.331Z,18.00
2023-11-28T23:21:32.981Z,17.93
2023-11-28T23:24:00.694Z,18.47
2023-11-28T23:26:28.220Z,17.47
2023-11-28T23:28:55.921Z,18.47
2023-11-28T23:31:23.453Z,18.03
2023-11-28T23:33:50.957Z,17.23
2023-11-28T23:36:18.356Z,17.90
2023-11-28T23:38:47.197Z,17.40
2023-11-28T23:41:14.819Z,18.90
2023-11-28T23:43:42.315Z,19.13
2023-11-28T23:46:09.729Z,19.57
2023-11-28T23:48:37.124Z,20.07
2023-11-28T23:51:04.790Z,20.20
2023-11-28T23:53:32.314Z,20.40
2023-11-28T23:55:59.816Z,21.00
2023-11-28T23:58:27.418Z,20.83
